Time;durP1;ratioP1;P1;durP2;ratioP2;P2;SDS_P1;SDS_P2;PMS_P1;PMS_P2;Temp;Humidity;BMP_temperature;BMP_pressure;BME280_temperature;BME280_humidity;BME280_pressure;Samples;Min_cycle;Max_cycle;Signal;HPM_P1;HPM_P2
2023/08/07 00:00:09;;;;;;;2.30;1.90;;;;;;;19.96;70.16;99924.66;5049082;27;99062;-66
2023/08/07 00:02:35;;;;;;;2.20;2.00;;;;;;;19.90;69.79;99925.19;5051001;27;97673;-66
2023/08/07 00:05:02;;;;;;;4.05;1.90;;;;;;;20.10;69.01;99916.25;5043550;27;97415;-65
2023/08/07 00:07:29;;;;;;;5.97;2.20;;;;;;;19.96;70.08;99924.66;5037716;27;102991;-66
2023/08/07 00:09:56;;;;;;;4.65;2.17;;;;;;;19.95;70.58;99920.31;5036440;27;100665;-65
2023/08/07 00:12:23;;;;;;;6.53;2.40;;;;;;;19.94;70.86;99915.91;5037465;27;97660;-64
2023/08/07 00:14:51;;;;;;;4.05;2.60;;;;;;;19.95;70.99;99917.63;5037415;27;97666;-64
2023/08/07 00:17:17;;;;;;;8.25;2.88;;;;;;;19.96;71.85;99918.44;5052807;27;101341;-64
2023/08/07 00:19:44;;;;;;;7.95;2.83;;;;;;;19.82;72.60;99917.81;5050794;27;99116;-64
2023/08/07 00:22:10;;;;;;;9.55;3.25;;;;;;;20.18;71.37;99921.81;5051474;27;97125;-64
2023/08/07 00:24:36;;;;;;;5.10;3.13;;;;;;;20.11;72.13;99920.63;5053265;27;96884;-64
2023/08/07 00:27:06;;;;;;;9.05;4.07;;;;;;;20.15;71.90;99918.56;5051431;27;97995;-64
2023/08/07 00:29:33;;;;;;;6.68;2.63;;;;;;;20.18;71.92;99923.63;5062032;27;100603;-64
2023/08/07 00:31:59;;;;;;;7.97;3.55;;;;;;;20.09;72.20;99919.91;5049083;27;101285;-64
2023/08/07 00:34:26;;;;;;;5.35;3.30;;;;;;;20.09;72.53;99921.75;5050268;27;96978;-64
2023/08/07 00:36:52;;;;;;;5.32;2.53;;;;;;;20.11;72.55;99911.75;5056446;27;98409;-64
2023/08/07 00:39:19;;;;;;;10.55;2.90;;;;;;;20.12;72.21;99908.94;5055447;27;97550;-65
2023/08/07 00:41:45;;;;;;;6.05;2.80;;;;;;;20.25;71.89;99908.69;5057214;27;97287;-65
2023/08/07 00:44:13;;;;;;;6.03;3.20;;;;;;;20.18;72.04;99897.66;5051376;27;96873;-64
2023/08/07 00:46:40;;;;;;;6.82;2.85;;;;;;;20.02;72.36;99902.66;5046370;27;99166;-65
2023/08/07 00:49:07;;;;;;;5.60;3.15;;;;;;;19.96;72.08;99900.53;5033869;27;98759;-66
2023/08/07 00:51:34;;;;;;;7.72;2.97;;;;;;;20.15;71.79;99903.28;5036822;27;97860;-65
2023/08/07 00:54:04;;;;;;;4.65;2.38;;;;;;;20.15;71.03;99900.59;5036443;27;98756;-65
2023/08/07 00:56:32;;;;;;;7.00;2.97;;;;;;;20.37;69.83;99898.72;5041747;27;99097;-64
2023/08/07 00:58:59;;;;;;;4.78;2.80;;;;;;;20.41;69.90;99905.53;5041451;27;101220;-64
2023/08/07 01:01:27;;;;;;;9.77;2.58;;;;;;;20.09;69.50;99917.22;5052983;27;96847;-65
2023/08/07 01:03:54;;;;;;;4.82;2.75;;;;;;;20.07;70.79;99908.50;5049230;27;97189;-65
2023/08/07 01:06:20;;;;;;;8.93;3.00;;;;;;;20.05;69.86;99910.44;5038328;27;98889;-64
2023/08/07 01:08:47;;;;;;;9.00;2.58;;;;;;;19.71;71.67;99909.84;5034648;27;99506;-64
2023/08/07 01:11:23;;;;;;;7.70;2.78;;;;;;;19.71;72.23;99909.00;5036022;27;97484;-64
2023/08/07 01:13:58;;;;;;;5.82;2.42;;;;;;;19.73;72.10;99905.22;5038730;27;97619;-64
2023/08/07 01:16:34;;;;;;;8.65;2.40;;;;;;;19.41;73.80;99901.75;5040134;27;98973;-65
2023/08/07 01:19:02;;;;;;;4.28;2.28;;;;;;;19.65;73.24;99906.84;5048402;27;98827;-64
2023/08/07 01:21:29;;;;;;;6.43;2.85;;;;;;;19.59;72.86;99894.84;5047410;27;97130;-64
2023/08/07 01:23:57;;;;;;;5.50;2.80;;;;;;;19.61;73.35;99897.41;5051030;27;96880;-65
2023/08/07 01:26:23;;;;;;;4.00;2.50;;;;;;;19.79;72.73;99891.28;5046624;27;98963;-64
2023/08/07 01:28:58;;;;;;;6.90;2.40;;;;;;;19.84;72.39;99888.19;5055730;27;98767;-64
2023/08/07 01:31:27;;;;;;;7.43;2.75;;;;;;;19.93;72.14;99887.41;5049620;27;97753;-64
2023/08/07 01:33:59;;;;;;;15.30;2.70;;;;;;;19.99;71.42;99883.31;5057979;27;96758;-64
2023/08/07 01:36:29;;;;;;;8.73;2.38;;;;;;;19.75;72.45;99878.28;5052108;27;97540;-64
2023/08/07 01:38:58;;;;;;;9.98;3.38;;;;;;;19.78;72.58;99873.50;5051287;27;98917;-64
2023/08/07 01:41:25;;;;;;;4.40;2.35;;;;;;;19.70;72.37;99875.13;5048483;27;96801;-65
2023/08/07 01:43:51;;;;;;;5.47;2.90;;;;;;;19.56;72.90;99870.16;5049144;27;101835;-65
2023/08/07 01:46:18;;;;;;;7.63;3.08;;;;;;;19.57;72.63;99866.47;5052278;27;97886;-65
2023/08/07 01:48:44;;;;;;;7.45;2.30;;;;;;;19.51;72.92;99865.16;5035647;27;101353;-65
2023/08/07 01:51:11;;;;;;;8.30;3.35;;;;;;;19.44;72.84;99870.19;5038714;27;97394;-65
2023/08/07 01:53:37;;;;;;;4.32;2.40;;;;;;;19.38;73.40;99865.34;5047310;27;97054;-65
2023/08/07 01:56:05;;;;;;;5.65;2.85;;;;;;;19.39;73.66;99872.41;5045377;27;99127;-65
2023/08/07 01:58:31;;;;;;;9.55;2.90;;;;;;;19.32;74.02;99870.38;5038243;27;101425;-66
2023/08/07 02:00:57;;;;;;;7.25;2.78;;;;;;;19.25;74.55;99870.06;5042818;27;97218;-67
2023/08/07 02:03:24;;;;;;;4.55;2.72;;;;;;;19.33;74.31;99866.72;5053992;27;97931;-65
2023/08/07 02:05:50;;;;;;;4.72;3.03;;;;;;;19.34;74.15;99871.97;5044428;27;97748;-67
2023/08/07 02:08:17;;;;;;;5.88;2.63;;;;;;;19.36;74.44;99878.00;5035997;27;101323;-66
2023/08/07 02:10:43;;;;;;;9.73;3.00;;;;;;;19.23;75.04;99873.84;5037837;27;97405;-65
2023/08/07 02:13:11;;;;;;;10.07;2.97;;;;;;;19.35;75.01;99876.34;5037332;27;97055;-66
2023/08/07 02:15:37;;;;;;;9.93;3.75;;;;;;;19.46;74.01;99878.97;5034652;27;98887;-65
2023/08/07 02:18:04;;;;;;;4.20;2.92;;;;;;;19.41;74.46;99880.31;5034070;27;99162;-65
2023/08/07 02:20:30;;;;;;;6.07;3.05;;;;;;;19.16;75.69;99878.88;5037439;27;98716;-65
2023/08/07 02:22:57;;;;;;;4.78;2.95;;;;;;;19.19;76.25;99880.44;5036744;27;97851;-65
2023/08/07 02:25:24;;;;;;;9.02;3.60;;;;;;;19.36;75.81;99880.69;5050482;27;99197;-66
2023/08/07 02:27:51;;;;;;;10.15;3.28;;;;;;;19.36;75.82;99887.91;5049403;27;101864;-65
2023/08/07 02:30:18;;;;;;;5.05;3.33;;;;;;;19.28;76.57;99885.88;5048010;27;96749;-65
2023/08/07 02:32:46;;;;;;;8.57;3.30;;;;;;;19.23;77.20;99888.06;5046612;27;97801;-66
2023/08/07 02:35:12;;;;;;;5.38;3.40;;;;;;;19.31;77.36;99887.41;5054272;27;101506;-66
2023/08/07 02:37:39;;;;;;;6.15;3.42;;;;;;;19.29;78.11;99892.94;5052946;27;100793;-66
2023/08/07 02:40:06;;;;;;;7.05;3.20;;;;;;;19.47;77.42;99891.41;5046688;27;97957;-65
2023/08/07 02:42:32;;;;;;;9.65;3.88;;;;;;;19.54;77.23;99894.41;5059601;27;96950;-65
2023/08/07 02:44:59;;;;;;;5.63;3.67;;;;;;;19.33;78.62;99899.72;5055369;27;98911;-65
2023/08/07 02:47:26;;;;;;;12.40;4.07;;;;;;;19.48;78.54;99906.50;5054443;27;98281;-65
2023/08/07 02:49:53;;;;;;;19.85;4.05;;;;;;;19.35;78.70;99907.63;5047633;27;97579;-65
2023/08/07 02:52:20;;;;;;;7.32;3.78;;;;;;;19.27;79.86;99904.75;5052173;27;96887;-65
2023/08/07 02:54:46;;;;;;;15.68;3.90;;;;;;;19.25;80.00;99898.66;5039407;27;101735;-65
2023/08/07 02:57:13;;;;;;;7.18;4.03;;;;;;;19.33;80.30;99905.06;5042316;27;97941;-65
2023/08/07 02:59:39;;;;;;;12.25;4.45;;;;;;;19.19;80.60;99901.84;5041966;27;98342;-65
2023/08/07 03:02:06;;;;;;;9.45;4.47;;;;;;;19.18;81.29;99906.38;5054012;27;96921;-65
2023/08/07 03:04:34;;;;;;;5.13;3.85;;;;;;;19.33;80.40;99905.06;5053607;27;100628;-66
2023/08/07 03:07:00;;;;;;;7.22;3.90;;;;;;;19.18;81.59;99901.00;5040417;27;99155;-65
2023/08/07 03:09:27;;;;;;;8.15;4.15;;;;;;;19.15;81.56;99903.97;5035965;27;97146;-65
2023/08/07 03:11:53;;;;;;;8.00;4.30;;;;;;;19.13;81.84;99897.03;5037153;27;97567;-65
2023/08/07 03:14:19;;;;;;;8.30;4.07;;;;;;;19.39;80.69;99909.91;5037364;27;98961;-65
2023/08/07 03:16:46;;;;;;;11.85;4.47;;;;;;;19.53;79.98;99905.25;5039592;27;98764;-65
2023/08/07 03:19:13;;;;;;;8.93;4.70;;;;;;;19.40;80.93;99908.94;5038321;27;100500;-64
2023/08/07 03:21:40;;;;;;;8.07;3.75;;;;;;;19.42;80.39;99909.66;5039736;27;98385;-64
2023/08/07 03:24:07;;;;;;;8.88;4.05;;;;;;;19.41;80.37;99907.97;5037604;27;98959;-65
2023/08/07 03:26:34;;;;;;;8.10;4.32;;;;;;;19.55;80.07;99909.50;5035795;27;98912;-64
2023/08/07 03:29:00;;;;;;;9.10;3.97;;;;;;;19.29;81.58;99906.34;5042468;27;98141;-64
2023/08/07 03:31:27;;;;;;;6.70;4.47;;;;;;;19.29;81.92;99914.38;5048464;27;100197;-64
2023/08/07 03:33:53;;;;;;;8.48;4.75;;;;;;;19.11;82.14;99915.88;5055837;27;101432;-65
2023/08/07 03:36:19;;;;;;;12.73;4.60;;;;;;;19.18;82.46;99908.19;5040988;27;98846;-66
2023/08/07 03:38:47;;;;;;;10.02;4.22;;;;;;;19.15;82.54;99911.16;5037273;27;97024;-66
2023/08/07 03:41:13;;;;;;;9.82;4.82;;;;;;;19.33;81.71;99914.94;5036263;27;98823;-66
2023/08/07 03:43:40;;;;;;;13.00;4.72;;;;;;;19.51;80.97;99916.06;5034324;27;98810;-66
2023/08/07 03:46:06;;;;;;;5.95;4.13;;;;;;;19.46;80.63;99916.47;5038295;27;98907;-66
2023/08/07 03:48:32;;;;;;;8.23;4.75;;;;;;;19.14;82.09;99915.66;5040179;27;98471;-65
2023/08/07 03:51:07;;;;;;;9.75;4.72;;;;;;;19.30;81.51;99917.84;5038588;27;96863;-66
2023/08/07 03:53:34;;;;;;;10.80;5.28;;;;;;;19.28;81.30;99914.47;5035005;27;98350;-66
2023/08/07 03:56:01;;;;;;;10.48;4.90;;;;;;;19.21;81.61;99911.47;5038310;27;99279;-65
2023/08/07 03:58:28;;;;;;;11.70;4.93;;;;;;;19.50;80.72;99923.25;5038304;27;97621;-66
2023/08/07 04:00:54;;;;;;;7.45;4.57;;;;;;;19.10;82.52;99915.03;5045068;27;97630;-66
2023/08/07 04:03:21;;;;;;;6.90;4.60;;;;;;;19.17;81.89;99922.56;5055239;27;99591;-66
2023/08/07 04:05:47;;;;;;;9.75;4.68;;;;;;;19.26;81.80;99919.97;5045273;27;99055;-66
2023/08/07 04:08:13;;;;;;;12.93;4.45;;;;;;;19.29;81.04;99921.53;5036594;27;99151;-66
2023/08/07 04:10:40;;;;;;;6.28;4.32;;;;;;;19.05;82.37;99927.97;5036492;27;97876;-66
2023/08/07 04:13:08;;;;;;;8.32;4.40;;;;;;;19.32;81.32;99918.59;5035452;27;98669;-66
2023/08/07 04:15:34;;;;;;;13.30;5.30;;;;;;;19.33;80.55;99923.81;5040796;27;98915;-66
2023/08/07 04:18:00;;;;;;;8.90;4.47;;;;;;;19.29;81.04;99919.72;5037108;27;98529;-65
2023/08/07 04:20:27;;;;;;;11.10;4.35;;;;;;;19.33;80.54;99921.16;5038677;27;99062;-65
2023/08/07 04:22:53;;;;;;;8.45;4.55;;;;;;;19.37;79.99;99917.22;5036476;27;99388;-67
2023/08/07 04:25:20;;;;;;;8.20;4.43;;;;;;;19.34;80.47;99919.31;5048617;27;99039;-67
2023/08/07 04:27:46;;;;;;;8.30;4.13;;;;;;;19.43;79.88;99922.06;5054737;27;97938;-67
2023/08/07 04:30:14;;;;;;;11.15;4.50;;;;;;;19.22;80.30;99923.88;5055532;27;99569;-67
2023/08/07 04:32:41;;;;;;;11.82;4.93;;;;;;;19.29;80.22;99913.50;5052316;27;99411;-67
2023/08/07 04:35:08;;;;;;;12.02;4.10;;;;;;;19.30;79.47;99916.03;5046656;27;99337;-67
2023/08/07 04:37:34;;;;;;;7.00;3.65;;;;;;;19.25;80.04;99922.75;5051957;27;99300;-67
2023/08/07 04:40:00;;;;;;;7.60;3.75;;;;;;;19.39;79.83;99920.63;5052288;27;96933;-67
2023/08/07 04:42:27;;;;;;;9.52;3.85;;;;;;;19.41;79.16;99921.34;5051562;27;99238;-68
2023/08/07 04:44:53;;;;;;;11.25;4.03;;;;;;;19.56;78.19;99931.78;5050461;27;98998;-68
2023/08/07 04:47:21;;;;;;;5.65;4.18;;;;;;;19.41;78.44;99924.03;5052640;27;96944;-68
2023/08/07 04:49:47;;;;;;;8.32;3.60;;;;;;;19.34;78.99;99925.53;5041992;27;97710;-69
2023/08/07 04:52:14;;;;;;;8.48;3.60;;;;;;;19.28;79.04;99925.19;5046388;27;99194;-69
2023/08/07 04:54:40;;;;;;;9.02;3.60;;;;;;;19.34;79.07;99927.34;5039970;27;99193;-69
2023/08/07 04:57:06;;;;;;;4.60;3.70;;;;;;;19.25;78.66;99934.31;5040035;27;96998;-69
2023/08/07 04:59:33;;;;;;;7.18;3.58;;;;;;;18.91;80.35;99941.66;5039079;27;98728;-69
2023/08/07 05:01:59;;;;;;;7.82;3.90;;;;;;;19.09;80.41;99933.94;5044086;27;99452;-69
2023/08/07 05:04:27;;;;;;;9.68;3.50;;;;;;;19.12;79.40;99928.31;5050915;27;98803;-68
2023/08/07 05:06:53;;;;;;;7.70;2.90;;;;;;;19.21;78.89;99932.03;5038335;27;96992;-67
2023/08/07 05:09:19;;;;;;;6.72;3.28;;;;;;;19.47;77.83;99934.25;5040831;27;98663;-67
2023/08/07 05:11:46;;;;;;;5.07;2.95;;;;;;;19.71;76.17;99941.16;5036813;27;100119;-67
2023/08/07 05:14:12;;;;;;;7.32;3.42;;;;;;;19.07;78.27;99936.72;5032051;27;99636;-67
2023/08/07 05:16:39;;;;;;;6.25;3.13;;;;;;;19.08;78.68;99938.44;5037744;27;99942;-66
2023/08/07 05:19:05;;;;;;;6.80;3.03;;;;;;;19.19;77.60;99953.59;5036994;27;98755;-67
2023/08/07 05:21:33;;;;;;;3.95;2.95;;;;;;;19.06;78.72;99950.25;5039607;27;99521;-66
2023/08/07 05:23:59;;;;;;;8.35;3.17;;;;;;;19.29;77.01;99951.88;5036269;27;99004;-67
2023/08/07 05:26:25;;;;;;;7.88;3.40;;;;;;;19.47;76.17;99950.34;5033128;27;97996;-68
2023/08/07 05:28:51;;;;;;;7.30;2.95;;;;;;;19.74;75.59;99959.69;5044060;27;97689;-67
2023/08/07 05:31:18;;;;;;;3.92;2.53;;;;;;;19.58;75.13;99959.28;5049875;27;99263;-67
2023/08/07 05:33:44;;;;;;;9.50;3.28;;;;;;;19.76;74.53;99955.88;5046776;27;101488;-67
2023/08/07 05:36:10;;;;;;;6.38;3.08;;;;;;;19.67;74.85;99956.69;5047777;27;96752;-67
2023/08/07 05:38:38;;;;;;;10.13;3.00;;;;;;;19.92;73.31;99960.78;5037685;27;99127;-67
2023/08/07 05:41:04;;;;;;;7.20;2.80;;;;;;;19.53;74.23;99958.81;5036548;27;99343;-68
2023/08/07 05:43:31;;;;;;;6.88;2.75;;;;;;;19.47;74.70;99958.38;5032725;27;98891;-67
2023/08/07 05:45:57;;;;;;;6.20;2.88;;;;;;;19.72;74.27;99967.84;5037779;27;97867;-67
2023/08/07 05:48:24;;;;;;;5.07;2.80;;;;;;;19.84;73.71;99973.97;5037458;27;98535;-67
2023/08/07 05:50:52;;;;;;;8.00;2.75;;;;;;;19.63;74.43;99970.44;5037024;27;99082;-67
2023/08/07 05:53:18;;;;;;;8.85;3.08;;;;;;;19.60;74.45;99976.09;5036358;27;97909;-67
2023/08/07 05:55:46;;;;;;;4.30;2.72;;;;;;;19.22;75.45;99971.25;5036054;27;97615;-68
2023/08/07 05:58:12;;;;;;;7.13;2.58;;;;;;;19.63;75.14;99973.13;5037385;27;97242;-68
2023/08/07 06:00:39;;;;;;;4.80;2.42;;;;;;;19.71;74.62;99978.69;5034714;27;97647;-68
2023/08/07 06:03:05;;;;;;;5.53;3.00;;;;;;;19.92;73.36;99981.38;5053867;27;99387;-68
2023/08/07 06:05:31;;;;;;;5.28;3.05;;;;;;;19.68;74.00;99970.94;5052028;27;97162;-68
2023/08/07 06:07:58;;;;;;;12.93;2.65;;;;;;;20.05;72.84;99966.78;5054639;27;96783;-67
2023/08/07 06:10:24;;;;;;;7.03;2.75;;;;;;;19.98;72.50;99965.59;5054748;27;99215;-68
2023/08/07 06:12:52;;;;;;;3.67;2.20;;;;;;;20.15;71.40;99973.00;5052392;27;98777;-68
2023/08/07 06:15:19;;;;;;;4.97;2.55;;;;;;;20.22;71.72;99979.53;5039413;27;97836;-68
2023/08/07 06:17:45;;;;;;;4.13;2.47;;;;;;;20.32;71.71;99982.28;5045795;27;96916;-68
2023/08/07 06:20:14;;;;;;;2.72;2.53;;;;;;;20.38;70.32;99981.78;5038298;27;98919;-68
2023/08/07 06:22:40;;;;;;;9.68;2.53;;;;;;;20.15;71.26;99991.78;5040118;27;98853;-67
2023/08/07 06:25:08;;;;;;;4.28;2.50;;;;;;;20.48;70.16;99995.25;5054079;27;96981;-68
2023/08/07 06:27:34;;;;;;;5.60;2.50;;;;;;;20.61;69.04;100003.91;5058810;27;98152;-67
2023/08/07 06:30:02;;;;;;;6.70;2.30;;;;;;;20.88;68.33;100004.09;5057470;27;98937;-68
2023/08/07 06:32:29;;;;;;;10.52;2.33;;;;;;;20.86;67.84;100007.94;5057511;27;98745;-68
2023/08/07 06:34:55;;;;;;;5.38;2.33;;;;;;;20.67;67.93;100006.91;5051266;27;96866;-68
2023/08/07 06:37:21;;;;;;;3.40;2.05;;;;;;;20.72;66.83;100006.47;5045080;27;97834;-68
2023/08/07 06:39:47;;;;;;;9.75;1.98;;;;;;;20.59;67.39;100012.09;5041625;27;99308;-68
2023/08/07 06:42:14;;;;;;;4.03;1.95;;;;;;;20.47;66.51;100009.66;5042467;27;98954;-67
2023/08/07 06:44:40;;;;;;;5.00;1.95;;;;;;;20.84;65.94;100015.25;5040656;27;98689;-66
2023/08/07 06:47:08;;;;;;;8.90;3.03;;;;;;;20.50;66.00;100015.56;5039278;27;98896;-67
2023/08/07 06:49:34;;;;;;;5.72;2.00;;;;;;;20.94;64.97;100027.72;5042086;27;100157;-68
2023/08/07 06:52:01;;;;;;;4.30;2.15;;;;;;;21.03;64.10;100018.84;5039349;27;98980;-68
2023/08/07 06:54:28;;;;;;;8.57;1.95;;;;;;;21.14;64.03;100011.63;5045674;27;97662;-68
2023/08/07 06:56:54;;;;;;;8.18;1.88;;;;;;;21.13;63.15;100015.34;5041809;27;96904;-68
2023/08/07 06:59:20;;;;;;;3.85;1.70;;;;;;;21.19;63.45;100017.50;5042823;27;98954;-68
2023/08/07 07:01:48;;;;;;;6.07;1.70;;;;;;;21.45;62.50;100003.38;5041968;27;99287;-69
2023/08/07 07:04:15;;;;;;;5.85;1.90;;;;;;;21.48;61.50;100015.66;5052515;27;97413;-69
2023/08/07 07:06:42;;;;;;;3.35;1.52;;;;;;;21.45;62.04;100015.97;5050790;27;97893;-69
2023/08/07 07:09:08;;;;;;;4.65;1.60;;;;;;;21.74;60.57;100013.25;5052475;27;98843;-69
2023/08/07 07:11:34;;;;;;;20.20;2.92;;;;;;;21.89;59.79;100022.56;5054886;27;98762;-68
2023/08/07 07:14:01;;;;;;;5.88;1.95;;;;;;;21.49;61.02;100020.06;5053611;27;96739;-68
2023/08/07 07:16:27;;;;;;;8.90;2.67;;;;;;;22.05;59.60;100028.25;5046359;27;97616;-68
2023/08/07 07:18:55;;;;;;;7.65;1.98;;;;;;;22.04;59.48;100028.41;5046807;27;99119;-68
2023/08/07 07:21:23;;;;;;;4.30;1.77;;;;;;;22.27;58.73;100033.28;5043822;27;101908;-68
2023/08/07 07:23:50;;;;;;;3.83;1.75;;;;;;;22.77;57.32;100040.22;5036359;27;96996;-69
2023/08/07 07:26:16;;;;;;;5.72;1.40;;;;;;;22.62;56.67;100024.50;5039845;27;99007;-69
2023/08/07 07:28:43;;;;;;;4.20;1.60;;;;;;;22.01;58.07;100036.75;5045252;27;98918;-69
2023/08/07 07:31:12;;;;;;;5.35;2.22;;;;;;;22.48;57.46;100043.00;5037410;27;98265;-70
2023/08/07 07:33:39;;;;;;;4.47;1.40;;;;;;;22.29;57.78;100034.97;5036638;27;98045;-69
2023/08/07 07:36:05;;;;;;;5.20;1.83;;;;;;;22.05;57.81;100019.34;5039222;27;99099;-69
2023/08/07 07:38:33;;;;;;;6.72;1.80;;;;;;;21.59;58.69;100031.69;5040838;27;99040;-70
2023/08/07 07:41:00;;;;;;;1.50;1.13;;;;;;;21.73;58.92;100036.59;5038649;27;102501;-70
2023/08/07 07:43:27;;;;;;;3.00;1.40;;;;;;;21.30;60.37;100044.22;5041578;27;98841;-69
2023/08/07 07:45:53;;;;;;;5.55;1.48;;;;;;;21.15;60.69;100033.00;5039443;27;99486;-69
2023/08/07 07:48:19;;;;;;;5.10;2.25;;;;;;;21.60;59.67;100046.78;5034495;27;99079;-68
2023/08/07 07:50:45;;;;;;;3.42;1.45;;;;;;;21.99;57.96;100052.19;5036550;27;98719;-68
2023/08/07 07:53:12;;;;;;;6.03;1.50;;;;;;;22.02;57.55;100049.19;5036944;27;97859;-68
2023/08/07 07:55:40;;;;;;;4.53;1.50;;;;;;;22.51;55.26;100048.91;5032443;27;98605;-69
2023/08/07 07:58:06;;;;;;;4.45;1.77;;;;;;;22.76;55.15;100054.69;5035432;27;99488;-68
2023/08/07 08:00:32;;;;;;;3.72;1.90;;;;;;;22.66;55.07;100049.28;5038232;27;98626;-69
2023/08/07 08:02:59;;;;;;;3.40;1.40;;;;;;;22.89;54.81;100049.78;5029271;27;97158;-68
2023/08/07 08:05:25;;;;;;;2.05;1.30;;;;;;;22.90;54.91;100059.56;5034374;27;97667;-68
2023/08/07 08:07:52;;;;;;;2.83;1.40;;;;;;;23.08;53.94;100059.63;5036767;27;97883;-68
2023/08/07 08:10:18;;;;;;;1.65;1.40;;;;;;;23.20;54.39;100050.31;5032968;27;99044;-68
2023/08/07 08:12:46;;;;;;;1.92;1.30;;;;;;;23.02;54.65;100055.69;5033329;27;97966;-68
2023/08/07 08:15:12;;;;;;;6.68;1.77;;;;;;;22.99;54.35;100058.66;5035862;27;98716;-68
2023/08/07 08:17:38;;;;;;;2.95;1.30;;;;;;;22.52;55.92;100066.78;5033231;27;99467;-68
2023/08/07 08:20:06;;;;;;;3.58;1.85;;;;;;;22.61;56.36;100062.34;5035454;27;101363;-67
2023/08/07 08:22:33;;;;;;;3.50;1.60;;;;;;;22.45;56.94;100062.16;5034378;27;97487;-68
2023/08/07 08:25:00;;;;;;;3.17;1.23;;;;;;;22.71;56.33;100078.50;5036088;27;98899;-68
2023/08/07 08:27:26;;;;;;;6.95;1.70;;;;;;;22.47;57.53;100077.13;5035536;27;99348;-68
2023/08/07 08:29:54;;;;;;;5.50;2.00;;;;;;;22.41;58.13;100077.72;5036114;27;103447;-69
2023/08/07 08:32:20;;;;;;;4.32;1.70;;;;;;;22.59;58.06;100075.09;5037070;27;97932;-68
2023/08/07 08:34:49;;;;;;;8.00;1.75;;;;;;;22.42;58.75;100090.19;5034609;27;97642;-68
2023/08/07 08:37:15;;;;;;;3.65;1.77;;;;;;;22.23;59.27;100084.84;5032706;27;97824;-68
2023/08/07 08:39:42;;;;;;;3.95;1.58;;;;;;;22.58;58.25;100086.88;5033889;27;99000;-69
2023/08/07 08:42:11;;;;;;;5.07;3.50;;;;;;;22.69;57.18;100085.84;5027436;27;100263;-68
2023/08/07 08:44:40;;;;;;;3.03;1.50;;;;;;;23.03;56.65;100082.47;5029110;27;97883;-67
2023/08/07 08:47:09;;;;;;;3.30;1.30;;;;;;;23.33;55.80;100089.38;5033277;27;98965;-68
2023/08/07 08:49:40;;;;;;;4.75;1.85;;;;;;;23.50;54.87;100087.72;5028568;27;99150;-69
2023/08/07 08:52:07;;;;;;;6.38;1.55;;;;;;;23.72;54.31;100081.88;5039992;27;97497;-68
2023/08/07 08:54:35;;;;;;;3.55;1.80;;;;;;;23.70;52.53;100077.63;5036273;27;97751;-68
2023/08/07 08:57:01;;;;;;;4.43;1.52;;;;;;;23.63;52.41;100081.97;5035950;27;99809;-68
2023/08/07 08:59:28;;;;;;;3.38;1.60;;;;;;;23.58;52.20;100084.25;5027051;27;99514;-68
2023/08/07 09:01:55;;;;;;;7.40;1.50;;;;;;;23.53;52.17;100070.41;5031404;27;97333;-68
2023/08/07 09:04:22;;;;;;;6.28;1.30;;;;;;;23.54;51.73;100077.50;5033862;27;99159;-68
2023/08/07 09:06:49;;;;;;;4.72;1.30;;;;;;;23.59;51.86;100077.88;5030751;27;99131;-67
2023/08/07 09:09:18;;;;;;;4.53;1.50;;;;;;;23.97;51.07;100074.84;5032339;27;99099;-68
2023/08/07 09:11:46;;;;;;;7.57;1.55;;;;;;;23.76;50.16;100068.97;5030073;27;97424;-68
2023/08/07 09:14:16;;;;;;;2.45;1.70;;;;;;;23.66;51.04;100084.34;5040785;27;96863;-69
2023/08/07 09:16:43;;;;;;;5.18;1.55;;;;;;;22.90;54.79;100076.59;5041472;27;99578;-68
2023/08/07 09:19:10;;;;;;;7.45;1.73;;;;;;;22.75;56.34;100090.69;5045996;27;98980;-69
2023/08/07 09:21:38;;;;;;;10.85;1.90;;;;;;;23.17;56.03;100086.50;5043475;27;99460;-66
2023/08/07 09:24:05;;;;;;;4.07;1.33;;;;;;;23.50;55.19;100093.13;5037162;27;98440;-67
2023/08/07 09:26:33;;;;;;;3.50;1.40;;;;;;;23.40;55.31;100100.41;5043943;27;98948;-68
2023/08/07 09:29:00;;;;;;;6.43;2.13;;;;;;;23.49;55.07;100096.00;5046250;27;98657;-68
2023/08/07 09:31:27;;;;;;;4.90;1.73;;;;;;;23.03;56.14;100101.34;5036401;27;97531;-67
2023/08/07 09:33:53;;;;;;;5.63;1.60;;;;;;;23.00;56.66;100090.84;5032764;27;98732;-68
2023/08/07 09:36:19;;;;;;;3.83;1.45;;;;;;;23.55;55.82;100085.44;5034766;27;99900;-69
2023/08/07 09:38:51;;;;;;;5.20;1.40;;;;;;;24.15;53.55;100088.34;5029296;27;99317;-72
2023/08/07 09:41:18;;;;;;;2.53;1.30;;;;;;;23.76;53.24;100088.66;5037370;27;97766;-68
2023/08/07 09:43:45;;;;;;;6.68;1.20;;;;;;;23.66;53.93;100092.44;5039850;27;99043;-68
2023/08/07 09:46:11;;;;;;;6.18;1.20;;;;;;;23.25;54.28;100094.66;5035004;27;99116;-68
2023/08/07 09:48:40;;;;;;;5.57;1.27;;;;;;;23.41;53.87;100100.25;5035531;27;98943;-68
2023/08/07 09:51:07;;;;;;;5.47;1.20;;;;;;;23.87;52.83;100106.47;5039879;27;97468;-68
2023/08/07 09:53:33;;;;;;;2.25;1.38;;;;;;;23.91;51.78;100102.47;5037432;27;98117;-68
2023/08/07 09:56:01;;;;;;;1.52;1.10;;;;;;;23.66;52.47;100093.28;5037961;27;99105;-67
2023/08/07 09:58:29;;;;;;;4.63;2.13;;;;;;;23.89;52.21;100104.47;5027856;27;99220;-67
2023/08/07 10:00:59;;;;;;;6.28;1.20;;;;;;;23.76;52.31;100114.81;5035999;27;98235;-67
2023/08/07 10:03:26;;;;;;;5.97;1.40;;;;;;;23.89;52.53;100109.88;5035655;27;98563;-68
2023/08/07 10:05:53;;;;;;;3.03;1.10;;;;;;;23.50;52.03;100112.00;5039127;27;99030;-68
2023/08/07 10:08:19;;;;;;;4.80;1.60;;;;;;;23.39;52.04;100112.19;5036148;27;98965;-66
2023/08/07 10:10:47;;;;;;;4.55;1.23;;;;;;;23.01;52.34;100097.09;5032719;27;98784;-67
2023/08/07 10:13:15;;;;;;;3.55;0.82;;;;;;;23.44;51.40;100105.34;5036307;27;97819;-67
2023/08/07 10:15:42;;;;;;;4.00;1.00;;;;;;;23.66;50.64;100103.22;5036910;27;99034;-67
2023/08/07 10:18:08;;;;;;;6.28;1.10;;;;;;;23.88;50.14;100097.38;5034754;27;99258;-67
2023/08/07 10:20:35;;;;;;;5.63;1.20;;;;;;;23.97;50.03;100098.28;5036391;27;98945;-68
2023/08/07 10:23:07;;;;;;;5.68;1.40;;;;;;;24.34;49.14;100106.22;5036460;27;97346;-68
2023/08/07 10:25:36;;;;;;;3.65;1.20;;;;;;;24.12;48.25;100111.06;5035352;27;98812;-68
2023/08/07 10:28:06;;;;;;;4.95;1.60;;;;;;;23.79;48.70;100114.50;5035533;27;99091;-67
2023/08/07 10:30:35;;;;;;;3.45;1.00;;;;;;;23.87;48.45;100106.47;5037723;27;97344;-68
2023/08/07 10:33:03;;;;;;;6.68;1.40;;;;;;;24.42;47.79;100101.69;5036765;27;98249;-68
2023/08/07 10:35:31;;;;;;;2.17;1.00;;;;;;;24.59;46.80;100094.56;5036283;27;98748;-68
2023/08/07 10:38:07;;;;;;;4.00;1.45;;;;;;;24.26;47.68;100096.19;5029513;27;99858;-67
2023/08/07 10:40:33;;;;;;;6.20;1.10;;;;;;;24.30;48.13;100100.28;5050115;27;97535;-67
2023/08/07 10:43:12;;;;;;;3.22;1.00;;;;;;;24.20;48.55;100099.53;5050286;27;96919;-67
2023/08/07 10:45:40;;;;;;;1.85;0.90;;;;;;;24.61;47.71;100096.09;5035856;27;99331;-68
2023/08/07 10:48:07;;;;;;;3.97;0.98;;;;;;;24.77;47.38;100089.94;5035741;27;99134;-68
2023/08/07 10:50:35;;;;;;;3.83;1.23;;;;;;;24.52;46.98;100099.75;5038491;27;96891;-68
2023/08/07 10:53:02;;;;;;;4.38;1.15;;;;;;;23.59;49.56;100097.59;5035270;27;96961;-69
2023/08/07 10:55:32;;;;;;;1.60;0.90;;;;;;;23.79;49.54;100095.59;5037507;27;99376;-68
2023/08/07 10:57:59;;;;;;;3.35;0.82;;;;;;;23.70;48.49;100096.53;5038659;27;99027;-69
2023/08/07 11:00:27;;;;;;;5.50;1.00;;;;;;;22.99;50.41;100104.47;5039816;27;98020;-68
2023/08/07 11:02:58;;;;;;;8.55;0.82;;;;;;;22.82;51.82;100103.41;5039625;27;98849;-69
2023/08/07 11:05:25;;;;;;;3.08;1.10;;;;;;;22.73;52.45;100122.28;5034779;27;98949;-68
2023/08/07 11:07:54;;;;;;;2.08;0.90;;;;;;;23.05;52.80;100139.75;5037498;27;99150;-69
2023/08/07 11:10:20;;;;;;;5.22;1.77;;;;;;;22.59;57.79;100150.50;5035348;27;98873;-68
2023/08/07 11:12:47;;;;;;;4.13;1.40;;;;;;;22.11;61.63;100145.22;5035907;27;99251;-68
2023/08/07 11:15:14;;;;;;;2.70;1.15;;;;;;;22.77;61.15;100145.25;5036482;27;98911;-68
2023/08/07 11:17:41;;;;;;;5.65;1.15;;;;;;;22.63;61.45;100141.16;5033743;27;99231;-70
2023/08/07 11:20:10;;;;;;;10.15;1.55;;;;;;;22.95;60.52;100143.50;5035989;27;98746;-69
2023/08/07 11:22:38;;;;;;;5.72;1.35;;;;;;;22.79;59.37;100133.31;5038173;27;97829;-69
2023/08/07 11:25:09;;;;;;;1.50;1.10;;;;;;;22.51;60.22;100131.56;5035070;27;99378;-69
2023/08/07 11:27:36;;;;;;;6.68;1.50;;;;;;;22.70;59.91;100146.81;5027630;27;97911;-69